Wind Surf — C6IO6 — position and weather

sailwx.info

Track history (hours):
 
Tides and Currents Weather Stations Pressure Air Temp Water Temp Dewpoint Dewpoint Depression Visibility Wind Speed Wind Dir Waves Ship Positions

Wind Surf

Operator: Holland America Line

Last reported at 2019-Jul-20 00:30 UTC. Time now 2019-Jul-20 00:51 UTC.
Position N 40°38' E 013°53'.

Length 187 m; draft 5.4 m.

Type: Passenger vessel. MMSI: 309242000.

Date/timePositionNaut miles runAvg speedWind from/ knotsBaromVisibWave heightAir tempDewpointWater temp
2019-Jul-20 00:30N 40°38' E 013°53'4 8.5
2019-Jul-20 00:00N 40°39' E 013°48'4 8.6
2019-Jul-19 23:30N 40°40' E 013°42'4 8.6
2019-Jul-19 23:00N 40°41' E 013°37'4 8.5
2019-Jul-19 22:30N 40°41' E 013°31'8 9.8
2019-Jul-19 21:44N 40°43' E 013°21'410.6
2019-Jul-19 21:19N 40°44' E 013°16'310.7
2019-Jul-19 21:00N 40°45' E 013°11'510.6
2019-Jul-19 20:29N 40°46' E 013°04'910.6
2019-Jul-19 19:39N 40°48' E 012°53'310.5
2019-Jul-19 19:23N 40°49' E 012°49'610.6
2019-Jul-19 18:49N 40°50' E 012°42'1610.9
2019-Jul-19 17:23N 40°54' E 012°22'12111.0
2019-Jul-19 06:20N 41°19' E 009°44'2810.3
2019-Jul-19 03:35N 41°17' E 009°06'210.5
2019-Jul-19 03:21N 41°17' E 009°03'610.6
2019-Jul-19 02:45N 41°16' E 008°55'310.4
2019-Jul-19 02:28N 41°15' E 008°51'510.2
2019-Jul-19 02:00N 41°14' E 008°45'510.2
2019-Jul-19 01:30N 41°13' E 008°38'510.1
2019-Jul-19 01:00N 41°12' E 008°32'610.2
2019-Jul-19 00:27N 41°11' E 008°24'27 8.7
2019-Jul-18 21:18N 40°48' E 008°06'9 9.3
2019-Jul-18 20:22N 40°39' E 008°05'7 9.2
2019-Jul-18 19:37N 40°33' E 008°09'5 0.4
2019-Jul-18 06:59N 40°31' E 008°03'12110.4
2019-Jul-17 19:22N 40°04' E 005°28'94 4.6
2019-Jul-16 22:48N 39°27' E 003°36'6 8.8
2019-Jul-16 22:10N 39°24' E 003°30'2 8.9
2019-Jul-16 21:59N 39°23' E 003°28'6 8.8
2019-Jul-16 21:16N 39°20' E 003°21'9 8.6
2019-Jul-16 20:10N 39°16' E 003°10'2 8.0
2019-Jul-16 19:54N 39°15' E 003°07'3 8.5
2019-Jul-16 19:29N 39°13' E 003°04'5 8.4
2019-Jul-16 18:57N 39°15' E 002°58'4 8.4
2019-Jul-16 18:30N 39°17' E 002°54'4 8.0
2019-Jul-16 18:00N 39°20' E 002°50'4 7.5
2019-Jul-16 17:30N 39°21' E 002°46'4 8.2
2019-Jul-16 17:00N 39°25' E 002°42'4 8.0
2019-Jul-16 16:30N 39°28' E 002°40'4 7.9
2019-Jul-16 16:00N 39°32' E 002°39'1 2.8
2019-Jul-16 15:30N 39°33' E 002°38'0 0.0
2019-Jul-16 15:00N 39°33' E 002°38'0 0.0
2019-Jul-16 14:30N 39°33' E 002°38'0 0.0
2019-Jul-16 13:57N 39°33' E 002°38'0 0.0
2019-Jul-16 13:27N 39°33' E 002°38'0 0.0
2019-Jul-16 12:57N 39°33' E 002°38'0 0.0
2019-Jul-16 12:30N 39°33' E 002°38'0 0.0
2019-Jul-16 12:00N 39°33' E 002°38'0 0.0
2019-Jul-16 11:30N 39°33' E 002°38'0 0.0
2019-Jul-16 11:00N 39°33' E 002°38'0 0.0
2019-Jul-16 10:30N 39°33' E 002°38'0 0.0
2019-Jul-16 10:00N 39°33' E 002°38'0 0.0
2019-Jul-16 09:30N 39°33' E 002°38'0 0.0
2019-Jul-16 09:00N 39°33' E 002°38'0 0.0
2019-Jul-16 08:30N 39°33' E 002°38'0 0.0
2019-Jul-16 08:00N 39°33' E 002°38'0 0.0
2019-Jul-16 07:30N 39°33' E 002°38'0 0.0
2019-Jul-16 07:00N 39°33' E 002°38'0 0.0
2019-Jul-16 06:30N 39°33' E 002°38'0 0.0
2019-Jul-16 06:00N 39°33' E 002°38'0 0.4
2019-Jul-16 05:30N 39°33' E 002°38'3 6.4
2019-Jul-16 05:00N 39°30' E 002°36'510.3
2019-Jul-16 04:30N 39°26' E 002°32'5 9.6
2019-Jul-16 04:00N 39°28' E 002°26'96 9.2
2019-Jul-15 17:35N 41°03' E 002°14'1 7.4
2019-Jul-15 17:30N 41°04' E 002°14'4 7.4
2019-Jul-15 17:00N 41°08' E 002°13'4 7.7
2019-Jul-15 16:30N 41°12' E 002°13'4 7.5
2019-Jul-15 16:00N 41°15' E 002°13'4 7.1
2019-Jul-15 15:30N 41°19' E 002°13'3 6.5
2019-Jul-15 15:00N 41°22' E 002°11'1 0.9
2019-Jul-15 14:21N 41°22' E 002°11'0 0.0
2019-Jul-15 14:00N 41°22' E 002°11'0 0.0
2019-Jul-15 13:21N 41°22' E 002°11'0 0.0
2019-Jul-15 12:51N 41°22' E 002°11'0 0.0
2019-Jul-15 12:27N 41°22' E 002°11'0 0.0
2019-Jul-15 11:57N 41°22' E 002°11'0 0.0
2019-Jul-15 11:27N 41°22' E 002°11'0 0.0
2019-Jul-15 10:57N 41°22' E 002°11'0 0.0
2019-Jul-15 10:30N 41°22' E 002°11'0 0.0
2019-Jul-15 09:57N 41°22' E 002°11'0 0.0
2019-Jul-15 09:30N 41°22' E 002°11'0 0.0
2019-Jul-15 09:00N 41°22' E 002°11'0 0.0
2019-Jul-15 08:30N 41°22' E 002°11'0 0.0
2019-Jul-15 08:00N 41°22' E 002°11'0 0.0
2019-Jul-15 07:30N 41°22' E 002°11'0 0.0
2019-Jul-15 07:00N 41°22' E 002°11'0 0.0
2019-Jul-15 06:30N 41°22' E 002°11'0 0.0
2019-Jul-15 06:00N 41°22' E 002°11'0 0.0
2019-Jul-15 05:30N 41°22' E 002°11'0 0.0
2019-Jul-15 05:00N 41°22' E 002°11'0 0.0
2019-Jul-15 04:30N 41°22' E 002°11'2 3.6
2019-Jul-15 04:01N 41°21' E 002°12'5 9.1
2019-Jul-15 03:31N 41°16' E 002°14'5 9.7
2019-Jul-15 03:01N 41°11' E 002°13'5 9.8
2019-Jul-15 02:31N 41°06' E 002°14'510.2
2019-Jul-15 02:01N 41°01' E 002°14'1710.7
2019-Jul-15 00:26N 40°45' E 002°15'610.2
2019-Jul-14 23:53N 40°39' E 002°15'4 9.9
2019-Jul-14 23:31N 40°35' E 002°14'5 9.8
2019-Jul-14 22:58N 40°30' E 002°14'2510.2
2019-Jul-14 20:29N 40°05' E 002°15'37 9.3
2019-Jul-14 16:29N 39°28' E 002°24'4 8.9
2019-Jul-14 16:00N 39°26' E 002°29'4 8.7
2019-Jul-14 15:30N 39°28' E 002°34'510.7
2019-Jul-14 15:00N 39°33' E 002°38'1 1.3
2019-Jul-14 14:30N 39°33' E 002°38'0 0.0
2019-Jul-14 13:59N 39°33' E 002°38'0 0.0
2019-Jul-14 13:29N 39°33' E 002°38'0 0.0
2019-Jul-14 12:59N 39°33' E 002°38'0 0.0
2019-Jul-14 12:29N 39°33' E 002°38'0 0.0
2019-Jul-14 11:59N 39°33' E 002°38'0 0.0
2019-Jul-14 11:29N 39°33' E 002°38'0 0.0
2019-Jul-14 10:59N 39°33' E 002°38'0 0.0
2019-Jul-14 10:29N 39°33' E 002°38'0 0.0
2019-Jul-14 09:59N 39°33' E 002°38'0 0.0
2019-Jul-14 09:29N 39°33' E 002°38'0 0.0
2019-Jul-14 08:59N 39°33' E 002°38'0 0.0
2019-Jul-14 08:29N 39°33' E 002°38'0 0.0
2019-Jul-14 07:59N 39°33' E 002°38'0 0.0
2019-Jul-14 07:29N 39°33' E 002°38'0 0.0
2019-Jul-14 07:00N 39°33' E 002°38'1 1.3
2019-Jul-14 06:30N 39°33' E 002°39'510.2
2019-Jul-14 06:00N 39°29' E 002°35'511.0
2019-Jul-14 05:30N 39°25' E 002°30'510.6
2019-Jul-14 05:00N 39°21' E 002°26'710.8
2019-Jul-14 04:23N 39°16' E 002°20'510.8
2019-Jul-14 03:57N 39°12' E 002°16'3710.8
2019-Jul-14 00:35N 38°45' E 001°44'310.9
2019-Jul-14 00:21N 38°43' E 001°42'11610.4
2019-Jul-13 13:11N 37°39' W 000°22'211.1
2019-Jul-13 13:00N 37°38' W 000°24'611.0
2019-Jul-13 12:27N 37°34' W 000°30'1110.5
2019-Jul-13 11:21N 37°31' W 000°44'411.1
2019-Jul-13 10:59N 37°32' W 000°49'9 1.4
2019-Jul-13 04:36N 37°36' W 000°59'0 2.9
2019-Jul-13 04:30N 37°35' W 000°59'4 9.1
2019-Jul-13 04:00N 37°31' W 001°02'610.8
2019-Jul-13 03:30N 37°27' W 001°06'77 7.9
2019-Jul-12 17:46N 36°43' W 002°26'312.0
2019-Jul-12 17:30N 36°46' W 002°27'4 8.2
2019-Jul-12 17:00N 36°50' W 002°28'0 0.0
2019-Jul-12 16:30N 36°50' W 002°28'0 0.0
2019-Jul-12 16:00N 36°50' W 002°28'0 0.0
2019-Jul-12 15:30N 36°50' W 002°28'0 0.0
2019-Jul-12 15:00N 36°50' W 002°28'0 0.0
2019-Jul-12 14:30N 36°50' W 002°28'0 0.0
2019-Jul-12 14:00N 36°50' W 002°28'0 0.0
2019-Jul-12 13:30N 36°50' W 002°28'0 0.0
2019-Jul-12 13:00N 36°50' W 002°28'0 0.0
2019-Jul-12 12:18N 36°50' W 002°28'0 0.0
2019-Jul-12 12:00N 36°50' W 002°28'0 0.0
2019-Jul-12 11:30N 36°50' W 002°28'0 0.0
2019-Jul-12 11:00N 36°50' W 002°28'0 0.0
2019-Jul-12 10:30N 36°50' W 002°28'0 0.0
2019-Jul-12 09:57N 36°50' W 002°28'0 0.0
2019-Jul-12 09:30N 36°50' W 002°28'0 0.0
2019-Jul-12 09:00N 36°50' W 002°28'0 0.0
2019-Jul-12 08:30N 36°50' W 002°28'0 0.0
2019-Jul-12 08:00N 36°50' W 002°28'0 0.0
2019-Jul-12 07:30N 36°50' W 002°28'0 0.0
2019-Jul-12 07:00N 36°50' W 002°28'0 0.0
2019-Jul-12 06:27N 36°50' W 002°28'0 0.0
2019-Jul-12 06:00N 36°50' W 002°28'0 0.0
2019-Jul-12 05:30N 36°50' W 002°28'0 0.0
2019-Jul-12 05:00N 36°50' W 002°28'2 3.2
2019-Jul-12 04:30N 36°49' W 002°28'5 9.6
2019-Jul-12 04:00N 36°44' W 002°30'5 9.8
2019-Jul-12 03:28N 36°40' W 002°34'4 9.5
2019-Jul-12 03:00N 36°37' W 002°38'  
Track history (hours):
 
Tides and Currents Weather Stations Pressure Air Temp Water Temp Dewpoint Dewpoint Depression Visibility Wind Speed Wind Dir Waves Ship Positions

Wind Surf

Operator: Holland America Line

Last reported at 2019-Jul-20 00:30 UTC. Time now 2019-Jul-20 00:51 UTC.
Position N 40°38' E 013°53'.

Length 187 m; draft 5.4 m.

Type: Passenger vessel. MMSI: 309242000.

Date/timePositionNaut miles runAvg speedWind from/ knotsBaromVisibWave heightAir tempDewpointWater temp
2019-Jul-20 00:30N 40°38' E 013°53'4 8.5
2019-Jul-20 00:00N 40°39' E 013°48'4 8.6
2019-Jul-19 23:30N 40°40' E 013°42'4 8.6
2019-Jul-19 23:00N 40°41' E 013°37'4 8.5
2019-Jul-19 22:30N 40°41' E 013°31'8 9.8
2019-Jul-19 21:44N 40°43' E 013°21'410.6
2019-Jul-19 21:19N 40°44' E 013°16'310.7
2019-Jul-19 21:00N 40°45' E 013°11'510.6
2019-Jul-19 20:29N 40°46' E 013°04'910.6
2019-Jul-19 19:39N 40°48' E 012°53'310.5
2019-Jul-19 19:23N 40°49' E 012°49'610.6
2019-Jul-19 18:49N 40°50' E 012°42'1610.9
2019-Jul-19 17:23N 40°54' E 012°22'12111.0
2019-Jul-19 06:20N 41°19' E 009°44'2810.3
2019-Jul-19 03:35N 41°17' E 009°06'210.5
2019-Jul-19 03:21N 41°17' E 009°03'610.6
2019-Jul-19 02:45N 41°16' E 008°55'310.4
2019-Jul-19 02:28N 41°15' E 008°51'510.2
2019-Jul-19 02:00N 41°14' E 008°45'510.2
2019-Jul-19 01:30N 41°13' E 008°38'510.1
2019-Jul-19 01:00N 41°12' E 008°32'610.2
2019-Jul-19 00:27N 41°11' E 008°24'27 8.7
2019-Jul-18 21:18N 40°48' E 008°06'9 9.3
2019-Jul-18 20:22N 40°39' E 008°05'7 9.2
2019-Jul-18 19:37N 40°33' E 008°09'5 0.4
2019-Jul-18 06:59N 40°31' E 008°03'12110.4
2019-Jul-17 19:22N 40°04' E 005°28'94 4.6
2019-Jul-16 22:48N 39°27' E 003°36'6 8.8
2019-Jul-16 22:10N 39°24' E 003°30'2 8.9
2019-Jul-16 21:59N 39°23' E 003°28'6 8.8
2019-Jul-16 21:16N 39°20' E 003°21'9 8.6
2019-Jul-16 20:10N 39°16' E 003°10'2 8.0
2019-Jul-16 19:54N 39°15' E 003°07'3 8.5
2019-Jul-16 19:29N 39°13' E 003°04'5 8.4
2019-Jul-16 18:57N 39°15' E 002°58'4 8.4
2019-Jul-16 18:30N 39°17' E 002°54'4 8.0
2019-Jul-16 18:00N 39°20' E 002°50'4 7.5
2019-Jul-16 17:30N 39°21' E 002°46'4 8.2
2019-Jul-16 17:00N 39°25' E 002°42'4 8.0
2019-Jul-16 16:30N 39°28' E 002°40'4 7.9
2019-Jul-16 16:00N 39°32' E 002°39'1 2.8
2019-Jul-16 15:30N 39°33' E 002°38'0 0.0
2019-Jul-16 15:00N 39°33' E 002°38'0 0.0
2019-Jul-16 14:30N 39°33' E 002°38'0 0.0
2019-Jul-16 13:57N 39°33' E 002°38'0 0.0
2019-Jul-16 13:27N 39°33' E 002°38'0 0.0
2019-Jul-16 12:57N 39°33' E 002°38'0 0.0
2019-Jul-16 12:30N 39°33' E 002°38'0 0.0
2019-Jul-16 12:00N 39°33' E 002°38'0 0.0
2019-Jul-16 11:30N 39°33' E 002°38'0 0.0
2019-Jul-16 11:00N 39°33' E 002°38'0 0.0
2019-Jul-16 10:30N 39°33' E 002°38'0 0.0
2019-Jul-16 10:00N 39°33' E 002°38'0 0.0
2019-Jul-16 09:30N 39°33' E 002°38'0 0.0
2019-Jul-16 09:00N 39°33' E 002°38'0 0.0
2019-Jul-16 08:30N 39°33' E 002°38'0 0.0
2019-Jul-16 08:00N 39°33' E 002°38'0 0.0
2019-Jul-16 07:30N 39°33' E 002°38'0 0.0
2019-Jul-16 07:00N 39°33' E 002°38'0 0.0
2019-Jul-16 06:30N 39°33' E 002°38'0 0.0
2019-Jul-16 06:00N 39°33' E 002°38'0 0.4
2019-Jul-16 05:30N 39°33' E 002°38'3 6.4
2019-Jul-16 05:00N 39°30' E 002°36'510.3
2019-Jul-16 04:30N 39°26' E 002°32'5 9.6
2019-Jul-16 04:00N 39°28' E 002°26'96 9.2
2019-Jul-15 17:35N 41°03' E 002°14'1 7.4
2019-Jul-15 17:30N 41°04' E 002°14'4 7.4
2019-Jul-15 17:00N 41°08' E 002°13'4 7.7
2019-Jul-15 16:30N 41°12' E 002°13'4 7.5
2019-Jul-15 16:00N 41°15' E 002°13'4 7.1
2019-Jul-15 15:30N 41°19' E 002°13'3 6.5
2019-Jul-15 15:00N 41°22' E 002°11'1 0.9
2019-Jul-15 14:21N 41°22' E 002°11'0 0.0
2019-Jul-15 14:00N 41°22' E 002°11'0 0.0
2019-Jul-15 13:21N 41°22' E 002°11'0 0.0
2019-Jul-15 12:51N 41°22' E 002°11'0 0.0
2019-Jul-15 12:27N 41°22' E 002°11'0 0.0
2019-Jul-15 11:57N 41°22' E 002°11'0 0.0
2019-Jul-15 11:27N 41°22' E 002°11'0 0.0
2019-Jul-15 10:57N 41°22' E 002°11'0 0.0
2019-Jul-15 10:30N 41°22' E 002°11'0 0.0
2019-Jul-15 09:57N 41°22' E 002°11'0 0.0
2019-Jul-15 09:30N 41°22' E 002°11'0 0.0
2019-Jul-15 09:00N 41°22' E 002°11'0 0.0
2019-Jul-15 08:30N 41°22' E 002°11'0 0.0
2019-Jul-15 08:00N 41°22' E 002°11'0 0.0
2019-Jul-15 07:30N 41°22' E 002°11'0 0.0
2019-Jul-15 07:00N 41°22' E 002°11'0 0.0
2019-Jul-15 06:30N 41°22' E 002°11'0 0.0
2019-Jul-15 06:00N 41°22' E 002°11'0 0.0
2019-Jul-15 05:30N 41°22' E 002°11'0 0.0
2019-Jul-15 05:00N 41°22' E 002°11'0 0.0
2019-Jul-15 04:30N 41°22' E 002°11'2 3.6
2019-Jul-15 04:01N 41°21' E 002°12'5 9.1
2019-Jul-15 03:31N 41°16' E 002°14'5 9.7
2019-Jul-15 03:01N 41°11' E 002°13'5 9.8
2019-Jul-15 02:31N 41°06' E 002°14'510.2
2019-Jul-15 02:01N 41°01' E 002°14'1710.7
2019-Jul-15 00:26N 40°45' E 002°15'610.2
2019-Jul-14 23:53N 40°39' E 002°15'4 9.9
2019-Jul-14 23:31N 40°35' E 002°14'5 9.8
2019-Jul-14 22:58N 40°30' E 002°14'2510.2
2019-Jul-14 20:29N 40°05' E 002°15'37 9.3
2019-Jul-14 16:29N 39°28' E 002°24'4 8.9
2019-Jul-14 16:00N 39°26' E 002°29'4 8.7
2019-Jul-14 15:30N 39°28' E 002°34'510.7
2019-Jul-14 15:00N 39°33' E 002°38'1 1.3
2019-Jul-14 14:30N 39°33' E 002°38'0 0.0
2019-Jul-14 13:59N 39°33' E 002°38'0 0.0
2019-Jul-14 13:29N 39°33' E 002°38'0 0.0
2019-Jul-14 12:59N 39°33' E 002°38'0 0.0
2019-Jul-14 12:29N 39°33' E 002°38'0 0.0
2019-Jul-14 11:59N 39°33' E 002°38'0 0.0
2019-Jul-14 11:29N 39°33' E 002°38'0 0.0
2019-Jul-14 10:59N 39°33' E 002°38'0 0.0
2019-Jul-14 10:29N 39°33' E 002°38'0 0.0
2019-Jul-14 09:59N 39°33' E 002°38'0 0.0
2019-Jul-14 09:29N 39°33' E 002°38'0 0.0
2019-Jul-14 08:59N 39°33' E 002°38'0 0.0
2019-Jul-14 08:29N 39°33' E 002°38'0 0.0
2019-Jul-14 07:59N 39°33' E 002°38'0 0.0
2019-Jul-14 07:29N 39°33' E 002°38'0 0.0
2019-Jul-14 07:00N 39°33' E 002°38'1 1.3
2019-Jul-14 06:30N 39°33' E 002°39'510.2
2019-Jul-14 06:00N 39°29' E 002°35'511.0
2019-Jul-14 05:30N 39°25' E 002°30'510.6
2019-Jul-14 05:00N 39°21' E 002°26'710.8
2019-Jul-14 04:23N 39°16' E 002°20'510.8
2019-Jul-14 03:57N 39°12' E 002°16'3710.8
2019-Jul-14 00:35N 38°45' E 001°44'310.9
2019-Jul-14 00:21N 38°43' E 001°42'11610.4
2019-Jul-13 13:11N 37°39' W 000°22'211.1
2019-Jul-13 13:00N 37°38' W 000°24'611.0
2019-Jul-13 12:27N 37°34' W 000°30'1110.5
2019-Jul-13 11:21N 37°31' W 000°44'411.1
2019-Jul-13 10:59N 37°32' W 000°49'9 1.4
2019-Jul-13 04:36N 37°36' W 000°59'0 2.9
2019-Jul-13 04:30N 37°35' W 000°59'4 9.1
2019-Jul-13 04:00N 37°31' W 001°02'610.8
2019-Jul-13 03:30N 37°27' W 001°06'77 7.9
2019-Jul-12 17:46N 36°43' W 002°26'312.0
2019-Jul-12 17:30N 36°46' W 002°27'4 8.2
2019-Jul-12 17:00N 36°50' W 002°28'0 0.0
2019-Jul-12 16:30N 36°50' W 002°28'0 0.0
2019-Jul-12 16:00N 36°50' W 002°28'0 0.0
2019-Jul-12 15:30N 36°50' W 002°28'0 0.0
2019-Jul-12 15:00N 36°50' W 002°28'0 0.0
2019-Jul-12 14:30N 36°50' W 002°28'0 0.0
2019-Jul-12 14:00N 36°50' W 002°28'0 0.0
2019-Jul-12 13:30N 36°50' W 002°28'0 0.0
2019-Jul-12 13:00N 36°50' W 002°28'0 0.0
2019-Jul-12 12:18N 36°50' W 002°28'0 0.0
2019-Jul-12 12:00N 36°50' W 002°28'0 0.0
2019-Jul-12 11:30N 36°50' W 002°28'0 0.0
2019-Jul-12 11:00N 36°50' W 002°28'0 0.0
2019-Jul-12 10:30N 36°50' W 002°28'0 0.0
2019-Jul-12 09:57N 36°50' W 002°28'0 0.0
2019-Jul-12 09:30N 36°50' W 002°28'0 0.0
2019-Jul-12 09:00N 36°50' W 002°28'0 0.0
2019-Jul-12 08:30N 36°50' W 002°28'0 0.0
2019-Jul-12 08:00N 36°50' W 002°28'0 0.0
2019-Jul-12 07:30N 36°50' W 002°28'0 0.0
2019-Jul-12 07:00N 36°50' W 002°28'0 0.0
2019-Jul-12 06:27N 36°50' W 002°28'0 0.0
2019-Jul-12 06:00N 36°50' W 002°28'0 0.0
2019-Jul-12 05:30N 36°50' W 002°28'0 0.0
2019-Jul-12 05:00N 36°50' W 002°28'2 3.2
2019-Jul-12 04:30N 36°49' W 002°28'5 9.6
2019-Jul-12 04:00N 36°44' W 002°30'5 9.8
2019-Jul-12 03:28N 36°40' W 002°34'4 9.5
2019-Jul-12 03:00N 36°37' W 002°38'  

Dump ship's entire track history